sensor_id;sensor_type;location;lat;lon;timestamp;P1;durP1;ratioP1;P2;durP2;ratioP2
66893;SDS011;53801;55.786;49.142;2022-07-03T00:01:40;16.70;;;9.00;;
66893;SDS011;53801;55.786;49.142;2022-07-03T00:07:03;15.60;;;7.90;;
66893;SDS011;53801;55.786;49.142;2022-07-03T00:09:28;16.98;;;7.65;;
66893;SDS011;53801;55.786;49.142;2022-07-03T00:14:29;13.73;;;7.90;;
66893;SDS011;53801;55.786;49.142;2022-07-03T00:16:54;15.68;;;7.82;;
66893;SDS011;53801;55.786;49.142;2022-07-03T00:19:27;12.20;;;6.83;;
66893;SDS011;53801;55.786;49.142;2022-07-03T00:24:44;13.25;;;6.30;;
66893;SDS011;53801;55.786;49.142;2022-07-03T00:27:11;12.63;;;5.95;;
66893;SDS011;53801;55.786;49.142;2022-07-03T00:29:41;12.25;;;6.22;;
66893;SDS011;53801;55.786;49.142;2022-07-03T00:32:08;12.70;;;6.22;;
66893;SDS011;53801;55.786;49.142;2022-07-03T00:34:33;10.93;;;5.82;;
66893;SDS011;53801;55.786;49.142;2022-07-03T00:36:59;8.98;;;5.55;;
66893;SDS011;53801;55.786;49.142;2022-07-03T00:39:25;9.87;;;5.60;;
66893;SDS011;53801;55.786;49.142;2022-07-03T00:42:01;13.35;;;5.45;;
66893;SDS011;53801;55.786;49.142;2022-07-03T00:44:27;13.63;;;5.90;;
66893;SDS011;53801;55.786;49.142;2022-07-03T00:46:53;10.93;;;5.68;;
66893;SDS011;53801;55.786;49.142;2022-07-03T00:49:19;17.50;;;6.38;;
66893;SDS011;53801;55.786;49.142;2022-07-03T00:51:45;14.70;;;6.67;;
66893;SDS011;53801;55.786;49.142;2022-07-03T00:54:16;12.05;;;6.30;;
66893;SDS011;53801;55.786;49.142;2022-07-03T00:56:46;14.13;;;6.25;;
66893;SDS011;53801;55.786;49.142;2022-07-03T00:59:14;12.32;;;6.00;;
66893;SDS011;53801;55.786;49.142;2022-07-03T01:01:39;13.10;;;6.50;;
66893;SDS011;53801;55.786;49.142;2022-07-03T01:04:21;11.65;;;6.13;;
66893;SDS011;53801;55.786;49.142;2022-07-03T01:06:51;12.70;;;6.25;;
66893;SDS011;53801;55.786;49.142;2022-07-03T01:09:19;13.02;;;6.75;;
66893;SDS011;53801;55.786;49.142;2022-07-03T01:11:58;13.23;;;6.53;;
66893;SDS011;53801;55.786;49.142;2022-07-03T01:14:43;11.88;;;6.40;;
66893;SDS011;53801;55.786;49.142;2022-07-03T01:19:50;11.82;;;6.30;;
66893;SDS011;53801;55.786;49.142;2022-07-03T01:27:34;12.82;;;6.43;;
66893;SDS011;53801;55.786;49.142;2022-07-03T01:30:04;13.98;;;6.10;;
66893;SDS011;53801;55.786;49.142;2022-07-03T01:32:33;12.60;;;5.45;;
66893;SDS011;53801;55.786;49.142;2022-07-03T01:35:00;11.85;;;5.70;;
66893;SDS011;53801;55.786;49.142;2022-07-03T01:37:26;11.85;;;5.78;;
66893;SDS011;53801;55.786;49.142;2022-07-03T01:39:53;13.00;;;6.07;;
66893;SDS011;53801;55.786;49.142;2022-07-03T01:42:19;12.73;;;5.90;;
66893;SDS011;53801;55.786;49.142;2022-07-03T01:44:45;12.02;;;6.30;;
66893;SDS011;53801;55.786;49.142;2022-07-03T01:47:12;12.43;;;6.57;;
66893;SDS011;53801;55.786;49.142;2022-07-03T01:49:39;23.13;;;7.32;;
66893;SDS011;53801;55.786;49.142;2022-07-03T01:52:06;12.02;;;6.78;;
66893;SDS011;53801;55.786;49.142;2022-07-03T01:54:31;14.37;;;6.93;;
66893;SDS011;53801;55.786;49.142;2022-07-03T01:56:59;14.65;;;7.15;;
66893;SDS011;53801;55.786;49.142;2022-07-03T02:02:04;13.93;;;7.10;;
66893;SDS011;53801;55.786;49.142;2022-07-03T02:04:37;12.50;;;6.22;;
66893;SDS011;53801;55.786;49.142;2022-07-03T02:07:16;13.20;;;6.37;;
66893;SDS011;53801;55.786;49.142;2022-07-03T02:09:49;12.18;;;5.85;;
66893;SDS011;53801;55.786;49.142;2022-07-03T02:15:02;8.82;;;4.82;;
66893;SDS011;53801;55.786;49.142;2022-07-03T02:23:05;11.23;;;5.10;;
66893;SDS011;53801;55.786;49.142;2022-07-03T02:25:34;9.53;;;4.87;;
66893;SDS011;53801;55.786;49.142;2022-07-03T02:28:04;10.32;;;4.90;;
66893;SDS011;53801;55.786;49.142;2022-07-03T02:30:32;9.88;;;5.20;;
66893;SDS011;53801;55.786;49.142;2022-07-03T02:32:59;9.48;;;5.20;;
66893;SDS011;53801;55.786;49.142;2022-07-03T02:35:27;9.35;;;4.70;;
66893;SDS011;53801;55.786;49.142;2022-07-03T02:37:55;8.23;;;4.87;;
66893;SDS011;53801;55.786;49.142;2022-07-03T02:45:40;12.17;;;5.27;;
66893;SDS011;53801;55.786;49.142;2022-07-03T02:48:12;11.65;;;5.40;;
66893;SDS011;53801;55.786;49.142;2022-07-03T02:50:40;13.30;;;5.50;;
66893;SDS011;53801;55.786;49.142;2022-07-03T02:53:24;10.35;;;5.60;;
66893;SDS011;53801;55.786;49.142;2022-07-03T02:55:50;10.98;;;4.93;;
66893;SDS011;53801;55.786;49.142;2022-07-03T03:04:20;9.07;;;5.05;;
66893;SDS011;53801;55.786;49.142;2022-07-03T03:06:41;8.57;;;5.10;;
66893;SDS011;53801;55.786;49.142;2022-07-03T03:09:19;9.88;;;5.32;;
66893;SDS011;53801;55.786;49.142;2022-07-03T03:11:45;9.48;;;4.90;;
66893;SDS011;53801;55.786;49.142;2022-07-03T03:14:12;8.73;;;5.10;;
66893;SDS011;53801;55.786;49.142;2022-07-03T03:16:41;7.30;;;4.70;;
66893;SDS011;53801;55.786;49.142;2022-07-03T03:19:10;8.98;;;5.32;;
66893;SDS011;53801;55.786;49.142;2022-07-03T03:21:37;10.68;;;5.10;;
66893;SDS011;53801;55.786;49.142;2022-07-03T03:24:07;10.50;;;5.50;;
66893;SDS011;53801;55.786;49.142;2022-07-03T03:26:33;10.25;;;5.45;;
66893;SDS011;53801;55.786;49.142;2022-07-03T03:28:59;9.53;;;5.10;;
66893;SDS011;53801;55.786;49.142;2022-07-03T03:31:24;7.32;;;5.00;;
66893;SDS011;53801;55.786;49.142;2022-07-03T03:33:51;12.60;;;5.37;;
66893;SDS011;53801;55.786;49.142;2022-07-03T03:36:19;9.85;;;5.45;;
66893;SDS011;53801;55.786;49.142;2022-07-03T03:38:45;7.38;;;4.75;;
66893;SDS011;53801;55.786;49.142;2022-07-03T03:41:11;14.10;;;5.45;;
66893;SDS011;53801;55.786;49.142;2022-07-03T03:43:36;8.30;;;5.17;;
66893;SDS011;53801;55.786;49.142;2022-07-03T03:46:02;11.53;;;4.83;;
66893;SDS011;53801;55.786;49.142;2022-07-03T03:48:28;8.32;;;4.80;;
66893;SDS011;53801;55.786;49.142;2022-07-03T03:50:55;8.75;;;5.20;;
66893;SDS011;53801;55.786;49.142;2022-07-03T03:53:21;9.37;;;5.33;;
66893;SDS011;53801;55.786;49.142;2022-07-03T03:58:19;8.95;;;4.80;;
66893;SDS011;53801;55.786;49.142;2022-07-03T04:00:44;9.30;;;4.70;;
66893;SDS011;53801;55.786;49.142;2022-07-03T04:03:17;7.20;;;4.63;;
66893;SDS011;53801;55.786;49.142;2022-07-03T04:05:43;7.47;;;4.27;;
66893;SDS011;53801;55.786;49.142;2022-07-03T04:08:08;7.10;;;4.37;;
66893;SDS011;53801;55.786;49.142;2022-07-03T04:10:34;7.70;;;4.25;;
66893;SDS011;53801;55.786;49.142;2022-07-03T04:12:59;6.93;;;4.30;;
66893;SDS011;53801;55.786;49.142;2022-07-03T04:15:25;7.27;;;4.13;;
66893;SDS011;53801;55.786;49.142;2022-07-03T04:17:51;9.35;;;3.70;;
66893;SDS011;53801;55.786;49.142;2022-07-03T04:20:16;9.37;;;4.30;;
66893;SDS011;53801;55.786;49.142;2022-07-03T04:22:45;5.50;;;4.07;;
66893;SDS011;53801;55.786;49.142;2022-07-03T04:25:10;6.97;;;3.90;;
66893;SDS011;53801;55.786;49.142;2022-07-03T04:27:36;6.40;;;3.63;;
66893;SDS011;53801;55.786;49.142;2022-07-03T04:30:04;5.85;;;3.40;;
66893;SDS011;53801;55.786;49.142;2022-07-03T04:32:35;6.88;;;4.03;;
66893;SDS011;53801;55.786;49.142;2022-07-03T04:35:00;14.47;;;4.67;;
66893;SDS011;53801;55.786;49.142;2022-07-03T04:37:33;8.32;;;4.82;;
66893;SDS011;53801;55.786;49.142;2022-07-03T04:39:59;6.47;;;4.67;;
66893;SDS011;53801;55.786;49.142;2022-07-03T04:42:24;9.40;;;5.03;;
66893;SDS011;53801;55.786;49.142;2022-07-03T04:44:50;5.70;;;4.90;;
66893;SDS011;53801;55.786;49.142;2022-07-03T04:47:15;6.13;;;4.63;;
66893;SDS011;53801;55.786;49.142;2022-07-03T04:49:41;8.75;;;5.30;;
66893;SDS011;53801;55.786;49.142;2022-07-03T04:52:07;7.37;;;5.20;;
66893;SDS011;53801;55.786;49.142;2022-07-03T04:54:32;7.25;;;5.95;;
66893;SDS011;53801;55.786;49.142;2022-07-03T04:56:58;8.00;;;5.83;;
66893;SDS011;53801;55.786;49.142;2022-07-03T04:59:23;5.97;;;5.00;;
66893;SDS011;53801;55.786;49.142;2022-07-03T05:01:49;7.93;;;5.85;;
66893;SDS011;53801;55.786;49.142;2022-07-03T05:04:15;10.77;;;6.03;;
66893;SDS011;53801;55.786;49.142;2022-07-03T05:06:43;10.52;;;6.18;;
66893;SDS011;53801;55.786;49.142;2022-07-03T05:09:08;7.87;;;6.50;;
66893;SDS011;53801;55.786;49.142;2022-07-03T05:11:36;7.78;;;6.95;;
66893;SDS011;53801;55.786;49.142;2022-07-03T05:14:02;9.23;;;6.82;;
66893;SDS011;53801;55.786;49.142;2022-07-03T05:16:28;7.82;;;6.78;;
66893;SDS011;53801;55.786;49.142;2022-07-03T05:18:53;8.93;;;7.53;;
66893;SDS011;53801;55.786;49.142;2022-07-03T05:21:19;8.70;;;7.47;;
66893;SDS011;53801;55.786;49.142;2022-07-03T05:26:12;10.88;;;7.90;;
66893;SDS011;53801;55.786;49.142;2022-07-03T05:28:38;8.20;;;7.20;;
66893;SDS011;53801;55.786;49.142;2022-07-03T05:33:42;8.47;;;7.67;;
66893;SDS011;53801;55.786;49.142;2022-07-03T05:36:08;9.82;;;8.27;;
66893;SDS011;53801;55.786;49.142;2022-07-03T05:38:36;8.98;;;8.27;;
66893;SDS011;53801;55.786;49.142;2022-07-03T05:41:20;10.23;;;7.22;;
66893;SDS011;53801;55.786;49.142;2022-07-03T05:43:46;10.50;;;6.17;;
66893;SDS011;53801;55.786;49.142;2022-07-03T05:46:11;8.90;;;7.68;;
66893;SDS011;53801;55.786;49.142;2022-07-03T05:48:37;9.33;;;8.47;;
66893;SDS011;53801;55.786;49.142;2022-07-03T05:51:03;9.80;;;7.47;;
66893;SDS011;53801;55.786;49.142;2022-07-03T05:56:29;8.95;;;8.02;;
66893;SDS011;53801;55.786;49.142;2022-07-03T06:01:29;9.30;;;8.48;;
66893;SDS011;53801;55.786;49.142;2022-07-03T06:03:54;10.10;;;9.20;;
66893;SDS011;53801;55.786;49.142;2022-07-03T06:06:20;9.10;;;7.45;;
66893;SDS011;53801;55.786;49.142;2022-07-03T06:08:45;8.17;;;7.47;;
66893;SDS011;53801;55.786;49.142;2022-07-03T06:11:13;9.48;;;8.57;;
66893;SDS011;53801;55.786;49.142;2022-07-03T06:13:39;9.53;;;8.63;;
66893;SDS011;53801;55.786;49.142;2022-07-03T06:16:04;10.30;;;9.17;;
66893;SDS011;53801;55.786;49.142;2022-07-03T06:50:36;9.23;;;8.32;;
66893;SDS011;53801;55.786;49.142;2022-07-03T07:07:13;10.27;;;9.27;;
66893;SDS011;53801;55.786;49.142;2022-07-03T07:09:38;10.60;;;9.77;;
66893;SDS011;53801;55.786;49.142;2022-07-03T07:12:04;9.07;;;8.20;;
66893;SDS011;53801;55.786;49.142;2022-07-03T07:14:30;9.57;;;8.43;;
66893;SDS011;53801;55.786;49.142;2022-07-03T07:16:55;9.48;;;8.68;;
66893;SDS011;53801;55.786;49.142;2022-07-03T07:19:21;10.33;;;9.30;;
66893;SDS011;53801;55.786;49.142;2022-07-03T07:21:46;9.23;;;8.53;;
66893;SDS011;53801;55.786;49.142;2022-07-03T07:24:12;9.55;;;8.95;;
66893;SDS011;53801;55.786;49.142;2022-07-03T07:29:15;10.32;;;9.38;;
66893;SDS011;53801;55.786;49.142;2022-07-03T07:31:43;9.00;;;8.20;;
66893;SDS011;53801;55.786;49.142;2022-07-03T07:34:09;9.33;;;8.63;;
66893;SDS011;53801;55.786;49.142;2022-07-03T07:36:34;9.48;;;8.57;;
66893;SDS011;53801;55.786;49.142;2022-07-03T07:39:00;9.23;;;8.47;;
66893;SDS011;53801;55.786;49.142;2022-07-03T07:41:28;8.77;;;8.07;;
66893;SDS011;53801;55.786;49.142;2022-07-03T07:46:58;8.80;;;8.07;;
66893;SDS011;53801;55.786;49.142;2022-07-03T07:52:12;8.37;;;7.63;;
66893;SDS011;53801;55.786;49.142;2022-07-03T08:03:17;8.98;;;8.25;;
66893;SDS011;53801;55.786;49.142;2022-07-03T08:08:49;9.88;;;9.05;;
66893;SDS011;53801;55.786;49.142;2022-07-03T08:19:37;9.63;;;8.93;;
66893;SDS011;53801;55.786;49.142;2022-07-03T08:22:13;9.55;;;8.75;;
66893;SDS011;53801;55.786;49.142;2022-07-03T08:24:38;9.30;;;8.53;;
66893;SDS011;53801;55.786;49.142;2022-07-03T08:42:19;10.32;;;9.18;;
66893;SDS011;53801;55.786;49.142;2022-07-03T08:59:14;9.73;;;7.32;;
66893;SDS011;53801;55.786;49.142;2022-07-03T09:01:40;8.88;;;8.18;;
66893;SDS011;53801;55.786;49.142;2022-07-03T09:04:35;9.65;;;8.95;;
66893;SDS011;53801;55.786;49.142;2022-07-03T09:07:02;6.25;;;5.75;;
66893;SDS011;53801;55.786;49.142;2022-07-03T09:09:30;9.52;;;5.05;;
66893;SDS011;53801;55.786;49.142;2022-07-03T09:12:30;6.20;;;3.92;;
66893;SDS011;53801;55.786;49.142;2022-07-03T09:14:59;5.55;;;3.78;;
66893;SDS011;53801;55.786;49.142;2022-07-03T09:17:25;5.85;;;3.90;;
66893;SDS011;53801;55.786;49.142;2022-07-03T09:19:51;7.18;;;3.22;;
66893;SDS011;53801;55.786;49.142;2022-07-03T09:22:27;4.83;;;3.67;;
66893;SDS011;53801;55.786;49.142;2022-07-03T09:24:53;6.50;;;3.80;;
66893;SDS011;53801;55.786;49.142;2022-07-03T09:27:20;6.00;;;3.17;;
66893;SDS011;53801;55.786;49.142;2022-07-03T09:32:21;4.93;;;3.03;;
66893;SDS011;53801;55.786;49.142;2022-07-03T09:34:47;8.27;;;3.42;;
66893;SDS011;53801;55.786;49.142;2022-07-03T09:37:12;4.30;;;3.40;;
66893;SDS011;53801;55.786;49.142;2022-07-03T09:39:39;4.80;;;3.03;;
66893;SDS011;53801;55.786;49.142;2022-07-03T09:44:43;3.17;;;2.67;;
66893;SDS011;53801;55.786;49.142;2022-07-03T09:54:59;5.90;;;5.30;;
66893;SDS011;53801;55.786;49.142;2022-07-03T09:57:28;6.93;;;5.40;;
66893;SDS011;53801;55.786;49.142;2022-07-03T10:05:33;5.75;;;4.53;;
66893;SDS011;53801;55.786;49.142;2022-07-03T10:08:32;7.78;;;4.18;;
66893;SDS011;53801;55.786;49.142;2022-07-03T10:13:50;5.25;;;4.03;;
66893;SDS011;53801;55.786;49.142;2022-07-03T10:25:10;4.15;;;3.40;;
66893;SDS011;53801;55.786;49.142;2022-07-03T10:30:44;4.75;;;3.60;;
66893;SDS011;53801;55.786;49.142;2022-07-03T10:36:09;4.68;;;3.38;;
66893;SDS011;53801;55.786;49.142;2022-07-03T10:44:21;5.20;;;3.53;;
66893;SDS011;53801;55.786;49.142;2022-07-03T10:52:28;4.78;;;2.97;;
66893;SDS011;53801;55.786;49.142;2022-07-03T10:54:56;7.07;;;3.35;;
66893;SDS011;53801;55.786;49.142;2022-07-03T10:57:21;6.70;;;3.35;;
66893;SDS011;53801;55.786;49.142;2022-07-03T11:05:22;3.95;;;3.20;;
66893;SDS011;53801;55.786;49.142;2022-07-03T11:18:11;5.03;;;3.00;;
66893;SDS011;53801;55.786;49.142;2022-07-03T11:36:31;6.00;;;2.80;;
66893;SDS011;53801;55.786;49.142;2022-07-03T11:39:04;3.97;;;2.97;;
66893;SDS011;53801;55.786;49.142;2022-07-03T11:44:00;4.80;;;3.20;;
66893;SDS011;53801;55.786;49.142;2022-07-03T11:46:29;3.60;;;3.15;;
66893;SDS011;53801;55.786;49.142;2022-07-03T11:49:11;5.18;;;3.20;;
66893;SDS011;53801;55.786;49.142;2022-07-03T11:54:49;3.70;;;2.80;;
66893;SDS011;53801;55.786;49.142;2022-07-03T11:57:15;3.70;;;2.70;;
66893;SDS011;53801;55.786;49.142;2022-07-03T11:59:43;6.40;;;2.80;;
66893;SDS011;53801;55.786;49.142;2022-07-03T12:02:08;4.00;;;2.57;;
66893;SDS011;53801;55.786;49.142;2022-07-03T12:04:34;4.97;;;2.97;;
66893;SDS011;53801;55.786;49.142;2022-07-03T12:07:00;5.53;;;2.80;;
66893;SDS011;53801;55.786;49.142;2022-07-03T12:09:27;5.28;;;2.78;;
66893;SDS011;53801;55.786;49.142;2022-07-03T12:17:12;7.38;;;2.97;;
66893;SDS011;53801;55.786;49.142;2022-07-03T12:25:05;3.92;;;2.30;;
66893;SDS011;53801;55.786;49.142;2022-07-03T12:30:08;3.72;;;2.67;;
66893;SDS011;53801;55.786;49.142;2022-07-03T12:38:36;3.40;;;2.42;;
66893;SDS011;53801;55.786;49.142;2022-07-03T12:41:09;3.30;;;2.47;;
66893;SDS011;53801;55.786;49.142;2022-07-03T12:43:41;6.60;;;2.50;;
66893;SDS011;53801;55.786;49.142;2022-07-03T12:49:07;4.13;;;2.38;;
66893;SDS011;53801;55.786;49.142;2022-07-03T12:51:57;3.58;;;2.50;;
66893;SDS011;53801;55.786;49.142;2022-07-03T12:54:32;3.28;;;2.35;;
66893;SDS011;53801;55.786;49.142;2022-07-03T12:57:10;7.90;;;2.63;;
66893;SDS011;53801;55.786;49.142;2022-07-03T13:00:27;6.07;;;2.30;;
66893;SDS011;53801;55.786;49.142;2022-07-03T13:08:05;4.53;;;2.10;;
66893;SDS011;53801;55.786;49.142;2022-07-03T13:25:28;3.85;;;2.22;;
66893;SDS011;53801;55.786;49.142;2022-07-03T13:35:47;5.70;;;2.10;;
66893;SDS011;53801;55.786;49.142;2022-07-03T13:44:17;4.55;;;2.10;;
66893;SDS011;53801;55.786;49.142;2022-07-03T13:46:43;4.33;;;2.10;;
66893;SDS011;53801;55.786;49.142;2022-07-03T13:55:14;5.15;;;1.80;;
66893;SDS011;53801;55.786;49.142;2022-07-03T14:09:11;4.00;;;2.97;;
66893;SDS011;53801;55.786;49.142;2022-07-03T14:11:39;5.38;;;2.50;;
66893;SDS011;53801;55.786;49.142;2022-07-03T14:19:46;3.83;;;2.20;;
66893;SDS011;53801;55.786;49.142;2022-07-03T14:22:14;6.68;;;2.70;;
66893;SDS011;53801;55.786;49.142;2022-07-03T14:27:42;3.83;;;2.17;;
66893;SDS011;53801;55.786;49.142;2022-07-03T14:36:32;5.30;;;2.10;;
66893;SDS011;53801;55.786;49.142;2022-07-03T14:42:00;5.45;;;2.45;;
66893;SDS011;53801;55.786;49.142;2022-07-03T14:44:28;6.72;;;1.95;;
66893;SDS011;53801;55.786;49.142;2022-07-03T15:04:50;6.15;;;2.75;;
66893;SDS011;53801;55.786;49.142;2022-07-03T15:07:18;4.65;;;2.35;;
66893;SDS011;53801;55.786;49.142;2022-07-03T15:27:37;4.97;;;2.40;;
66893;SDS011;53801;55.786;49.142;2022-07-03T15:49:45;6.65;;;2.05;;
66893;SDS011;53801;55.786;49.142;2022-07-03T16:22:12;3.50;;;1.90;;
66893;SDS011;53801;55.786;49.142;2022-07-03T16:51:02;6.38;;;2.15;;
66893;SDS011;53801;55.786;49.142;2022-07-03T16:53:30;6.13;;;1.85;;
66893;SDS011;53801;55.786;49.142;2022-07-03T16:55:56;3.57;;;1.83;;
66893;SDS011;53801;55.786;49.142;2022-07-03T17:01:10;3.03;;;2.00;;
66893;SDS011;53801;55.786;49.142;2022-07-03T17:03:38;4.15;;;2.00;;
66893;SDS011;53801;55.786;49.142;2022-07-03T17:08:56;2.97;;;1.90;;
66893;SDS011;53801;55.786;49.142;2022-07-03T17:14:25;5.35;;;1.73;;
66893;SDS011;53801;55.786;49.142;2022-07-03T17:26:22;5.23;;;1.70;;
66893;SDS011;53801;55.786;49.142;2022-07-03T17:43:26;3.65;;;1.25;;
66893;SDS011;53801;55.786;49.142;2022-07-03T17:54:44;4.77;;;1.40;;
66893;SDS011;53801;55.786;49.142;2022-07-03T18:06:05;4.13;;;1.67;;
66893;SDS011;53801;55.786;49.142;2022-07-03T18:22:25;4.03;;;1.60;;
66893;SDS011;53801;55.786;49.142;2022-07-03T18:24:53;4.25;;;1.40;;
66893;SDS011;53801;55.786;49.142;2022-07-03T18:27:25;3.65;;;1.65;;
66893;SDS011;53801;55.786;49.142;2022-07-03T18:35:33;3.70;;;1.17;;
66893;SDS011;53801;55.786;49.142;2022-07-03T22:29:49;3.65;;;1.63;;
66893;SDS011;53801;55.786;49.142;2022-07-03T23:08:23;3.22;;;1.63;;
